Terminal Aerodrome Forecast
Issued by NWS

Home | Current Version | Previous Version | Text Only | Print | Product List | Glossary On
Versions: 1 2 3 4 5 6 7 8 9 10 11 12 13 14 15
000
FTUS41 KCAR 230522
TAFBHB
TAF
KBHB 230522Z 2306/2406 07004KT P6SM SCT012 OVC050
     FM230900 10004KT 5SM BR SCT010 OVC040
     FM231400 09006KT 4SM BR OVC015
     FM231600 08006KT 3SM -RA BR OVC007
      AMD LTD TO CLD VIS AND WIND=

USA.gov is the U.S. government's official web portal to all federal, state and local government web resources and services.